Time;durP1;ratioP1;P1;durP2;ratioP2;P2;SDS_P1;SDS_P2;PMS_P1;PMS_P2;Temp;Humidity;BMP_temperature;BMP_pressure;BME280_temperature;BME280_humidity;BME280_pressure;Samples;Min_cycle;Max_cycle;Signal;HPM_P1;HPM_P2
2022/07/09 00:01:29;;;;;;;1.60;1.50;;;18.60;31.10;;;;;;10436287;28;20698;-78
2022/07/09 00:06:32;;;;;;;2.40;1.80;;;18.60;30.60;;;;;;10424622;28;20313;-77
2022/07/09 00:11:37;;;;;;;1.70;1.60;;;18.50;30.50;;;;;;10426108;28;20225;-78
2022/07/09 00:16:40;;;;;;;1.77;1.63;;;18.30;31.10;;;;;;10432344;28;20229;-78
2022/07/09 00:21:43;;;;;;;1.80;1.70;;;18.20;31.00;;;;;;10434565;28;20228;-78
2022/07/09 00:26:48;;;;;;;1.97;1.73;;;18.10;31.30;;;;;;10430506;28;20233;-78
2022/07/09 00:31:51;;;;;;;1.80;1.63;;;18.10;31.60;;;;;;10425777;28;20864;-77
2022/07/09 00:36:55;;;;;;;2.20;1.53;;;18.00;31.30;;;;;;10428348;28;21137;-78
2022/07/09 00:42:07;;;;;;;1.57;1.47;;;17.90;31.30;;;;;;10433796;28;20235;-77
2022/07/09 00:47:10;;;;;;;2.63;1.80;;;17.80;33.30;;;;;;10430796;28;20224;-77
2022/07/09 00:52:17;;;;;;;2.10;1.50;;;17.80;31.70;;;;;;10434663;28;20225;-77
2022/07/09 00:57:22;;;;;;;1.77;1.67;;;17.80;31.90;;;;;;10426071;28;20230;-78
2022/07/09 01:02:25;;;;;;;3.50;1.70;;;17.70;31.90;;;;;;10427472;28;20228;-77
2022/07/09 01:07:28;;;;;;;1.63;1.53;;;17.70;31.70;;;;;;10429277;28;20230;-78
2022/07/09 01:12:33;;;;;;;3.40;1.80;;;17.60;31.90;;;;;;10434973;28;20232;-77
2022/07/09 01:17:40;;;;;;;2.17;1.80;;;17.70;32.50;;;;;;10435885;28;20237;-77
2022/07/09 01:22:44;;;;;;;2.93;1.73;;;17.70;32.70;;;;;;10427120;28;20217;-77
2022/07/09 01:27:48;;;;;;;2.03;1.43;;;17.70;32.30;;;;;;10431551;28;20236;-78
2022/07/09 01:32:52;;;;;;;2.53;1.70;;;17.60;31.90;;;;;;10430484;28;20307;-77
2022/07/09 01:37:56;;;;;;;1.90;1.70;;;17.60;32.00;;;;;;10428986;28;20241;-77
2022/07/09 01:42:59;;;;;;;4.23;1.80;;;17.50;32.40;;;;;;10428843;28;20243;-78
2022/07/09 01:48:03;;;;;;;3.20;1.60;;;17.50;32.10;;;;;;10430049;28;20225;-77
2022/07/09 01:53:07;;;;;;;1.83;1.70;;;17.40;32.20;;;;;;10428479;28;20237;-77
2022/07/09 01:58:11;;;;;;;1.77;1.60;;;17.40;32.90;;;;;;10429618;28;20599;-78
2022/07/09 02:03:14;;;;;;;2.00;1.50;;;17.30;32.50;;;;;;10429485;28;20214;-78
2022/07/09 02:08:18;;;;;;;1.93;1.50;;;17.30;32.60;;;;;;10431774;28;20696;-78
2022/07/09 02:13:22;;;;;;;2.13;1.50;;;17.20;33.20;;;;;;10423850;28;20235;-77
2022/07/09 02:18:25;;;;;;;1.87;1.77;;;17.20;33.00;;;;;;10423629;28;21291;-78
2022/07/09 02:23:30;;;;;;;2.23;1.47;;;17.20;33.10;;;;;;10426434;28;20252;-77
2022/07/09 02:28:33;;;;;;;2.37;1.70;;;17.20;33.90;;;;;;10428776;28;20248;-77
2022/07/09 02:33:37;;;;;;;2.03;1.47;;;17.20;33.30;;;;;;10427745;28;20759;-77
2022/07/09 02:38:41;;;;;;;2.03;1.70;;;17.20;33.30;;;;;;10430764;28;20698;-77
2022/07/09 02:43:44;;;;;;;2.23;1.80;;;17.20;34.00;;;;;;10429158;28;20582;-78
2022/07/09 02:48:47;;;;;;;1.90;1.50;;;17.20;33.80;;;;;;10439963;28;20220;-77
2022/07/09 02:53:52;;;;;;;3.53;1.60;;;17.20;33.50;;;;;;10436545;28;20605;-78
2022/07/09 02:58:55;;;;;;;1.73;1.63;;;17.20;34.00;;;;;;10437215;28;20229;-77
2022/07/09 03:03:58;;;;;;;3.00;1.73;;;17.20;33.60;;;;;;10439653;28;20759;-77
2022/07/09 03:09:03;;;;;;;1.90;1.40;;;17.10;33.90;;;;;;10438069;28;20317;-76
2022/07/09 03:14:07;;;;;;;1.97;1.63;;;17.00;33.90;;;;;;10425841;28;20218;-77
2022/07/09 03:19:10;;;;;;;1.73;1.57;;;17.00;33.90;;;;;;10432832;28;20225;-77
2022/07/09 03:24:14;;;;;;;2.50;1.60;;;17.00;33.30;;;;;;10430968;28;20217;-78
2022/07/09 03:29:18;;;;;;;2.10;1.60;;;17.10;34.50;;;;;;10429908;28;20231;-78
2022/07/09 03:34:21;;;;;;;2.43;1.90;;;17.10;34.00;;;;;;10429810;28;20228;-78
2022/07/09 03:39:26;;;;;;;1.70;1.60;;;17.10;34.00;;;;;;10432273;28;20240;-77
2022/07/09 03:44:29;;;;;;;2.00;1.60;;;17.10;34.60;;;;;;10435975;28;20224;-77
2022/07/09 03:49:33;;;;;;;1.70;1.53;;;17.20;34.00;;;;;;10437093;28;20235;-78
2022/07/09 03:54:38;;;;;;;2.20;1.70;;;17.30;34.10;;;;;;10428885;28;20229;-78
2022/07/09 03:59:41;;;;;;;2.73;1.90;;;17.30;35.30;;;;;;10432375;28;20229;-77
2022/07/09 04:04:44;;;;;;;3.13;1.90;;;17.40;34.60;;;;;;10429503;28;20233;-77
2022/07/09 04:09:49;;;;;;;1.90;1.57;;;17.40;34.40;;;;;;10432877;28;20243;-78
2022/07/09 04:14:52;;;;;;;3.70;1.60;;;17.50;35.20;;;;;;10438989;28;20220;-78
2022/07/09 04:19:55;;;;;;;2.20;1.77;;;17.50;34.70;;;;;;10429636;28;20229;-78
2022/07/09 04:25:00;;;;;;;2.60;1.80;;;17.50;34.30;;;;;;10433494;28;20232;-78
2022/07/09 04:30:04;;;;;;;3.70;1.90;;;17.50;35.10;;;;;;10425870;28;20247;-77
2022/07/09 04:35:08;;;;;;;3.87;2.00;;;17.60;35.30;;;;;;10430812;28;20217;-77
2022/07/09 04:40:13;;;;;;;1.70;1.60;;;17.70;35.20;;;;;;10428407;28;20228;-77
2022/07/09 04:45:16;;;;;;;2.00;1.90;;;17.90;35.50;;;;;;10430628;28;20225;-77
2022/07/09 04:50:19;;;;;;;2.10;1.90;;;17.90;34.70;;;;;;10434139;28;20679;-77
2022/07/09 04:55:24;;;;;;;2.17;1.90;;;17.90;34.70;;;;;;10434389;28;20229;-77
2022/07/09 05:00:27;;;;;;;2.70;1.80;;;18.00;35.40;;;;;;10427088;28;20229;-77
2022/07/09 05:05:32;;;;;;;3.20;1.73;;;18.10;34.80;;;;;;10438567;28;20693;-77
2022/07/09 05:10:47;;;;;;;3.77;1.90;;;18.20;36.00;;;;;;10435067;28;20266;-77
2022/07/09 05:15:54;;;;;;;3.17;1.70;;;18.30;35.70;;;;;;10431748;28;20230;-77
2022/07/09 05:20:57;;;;;;;2.60;1.80;;;18.30;36.00;;;;;;10440740;28;20618;-77
2022/07/09 05:26:06;;;;;;;2.40;1.63;;;18.40;35.20;;;;;;10437212;28;20300;-77
2022/07/09 05:31:09;;;;;;;2.10;1.60;;;18.50;36.10;;;;;;10435653;28;20232;-77
2022/07/09 05:36:33;;;;;;;2.73;1.83;;;18.60;35.30;;;;;;10437903;28;20236;-77
2022/07/09 05:41:37;;;;;;;2.30;1.93;;;18.70;35.40;;;;;;10443407;28;20225;-76
2022/07/09 05:46:41;;;;;;;2.67;1.70;;;18.60;35.30;;;;;;10440017;28;20224;-76
2022/07/09 05:51:44;;;;;;;2.73;2.00;;;18.70;35.40;;;;;;10434555;28;20274;-77
2022/07/09 05:56:48;;;;;;;2.63;2.00;;;18.70;35.40;;;;;;10436961;28;20306;-77
2022/07/09 06:01:53;;;;;;;2.43;2.20;;;18.70;36.10;;;;;;10437693;28;20259;-77
2022/07/09 06:06:56;;;;;;;2.90;2.07;;;18.70;35.40;;;;;;10438344;28;20280;-77
2022/07/09 06:12:01;;;;;;;2.97;1.90;;;18.70;35.40;;;;;;10429570;28;20848;-77
2022/07/09 06:17:06;;;;;;;3.23;1.93;;;18.70;35.60;;;;;;10438299;28;20243;-77
2022/07/09 06:22:10;;;;;;;2.20;1.73;;;18.80;35.90;;;;;;10437775;28;20609;-77
2022/07/09 06:27:14;;;;;;;2.10;1.90;;;18.80;35.50;;;;;;10440770;28;20760;-77
2022/07/09 06:32:17;;;;;;;3.27;2.03;;;18.80;36.30;;;;;;10444336;28;20217;-77
2022/07/09 06:37:21;;;;;;;17.93;16.73;;;18.90;35.70;;;;;;10440187;28;20237;-75
2022/07/09 06:42:25;;;;;;;2.60;2.33;;;19.00;36.30;;;;;;10433273;28;20251;-77
2022/07/09 06:47:34;;;;;;;2.40;2.20;;;19.10;36.70;;;;;;10431285;28;20300;-78
2022/07/09 06:52:37;;;;;;;12.03;11.23;;;19.20;35.80;;;;;;10439008;28;21040;-77
2022/07/09 06:57:41;;;;;;;84.03;74.80;;;19.40;36.00;;;;;;10436427;28;20235;-74
2022/07/09 07:02:44;;;;;;;13.13;9.37;;;19.60;36.20;;;;;;10441360;28;20226;-75
2022/07/09 07:07:48;;;;;;;77.93;19.80;;;19.70;36.20;;;;;;10438546;28;20239;-75
2022/07/09 07:12:52;;;;;;;902.20;435.83;;;19.90;35.60;;;;;;10438463;28;20229;-75
2022/07/09 07:17:55;;;;;;;81.97;37.40;;;20.00;35.20;;;;;;10427782;28;20229;-75
2022/07/09 07:23:00;;;;;;;24.17;12.93;;;20.10;35.20;;;;;;10428590;28;20305;-75
2022/07/09 07:28:05;;;;;;;12.43;8.47;;;20.30;35.10;;;;;;10436426;28;20236;-75
2022/07/09 07:33:09;;;;;;;5.50;3.50;;;20.40;35.50;;;;;;10431861;28;20214;-75
2022/07/09 07:38:12;;;;;;;124.73;115.23;;;20.60;35.50;;;;;;10436383;28;20240;-75
2022/07/09 07:43:16;;;;;;;9.40;8.60;;;20.80;35.80;;;;;;10434182;28;20620;-75
2022/07/09 07:48:20;;;;;;;2.37;1.90;;;21.10;35.30;;;;;;10437019;28;20608;-75
2022/07/09 07:53:23;;;;;;;2.20;2.00;;;21.30;35.10;;;;;;10433005;28;20225;-74
2022/07/09 07:58:27;;;;;;;1.50;1.40;;;21.50;35.00;;;;;;10435030;28;20701;-75
2022/07/09 08:03:31;;;;;;;10.93;10.23;;;21.70;34.70;;;;;;10438979;28;20224;-75
2022/07/09 08:08:35;;;;;;;2.63;1.50;;;21.90;34.80;;;;;;10424315;28;20308;-75
2022/07/09 08:13:41;;;;;;;2.63;2.43;;;22.10;34.70;;;;;;10428622;28;20233;-75
2022/07/09 08:18:44;;;;;;;1.93;1.40;;;22.40;34.30;;;;;;10432499;28;20228;-75
2022/07/09 08:23:53;;;;;;;1.67;1.50;;;22.70;34.40;;;;;;10433376;28;20218;-75
2022/07/09 08:28:58;;;;;;;1.20;1.10;;;22.90;34.30;;;;;;10430829;28;20303;-75
2022/07/09 08:34:01;;;;;;;2.00;1.20;;;23.20;33.00;;;;;;10434695;28;20225;-75
2022/07/09 08:39:05;;;;;;;1.20;1.10;;;23.30;33.20;;;;;;10431822;28;20221;-75
2022/07/09 08:44:20;;;;;;;2.30;1.30;;;23.50;33.30;;;;;;10429626;28;21152;-75
2022/07/09 08:49:25;;;;;;;2.73;1.37;;;23.70;31.50;;;;;;10431775;28;20233;-75
2022/07/09 08:54:29;;;;;;;2.23;1.60;;;23.90;31.60;;;;;;10435776;28;20231;-75
2022/07/09 08:59:34;;;;;;;3.23;1.10;;;24.00;31.60;;;;;;10430975;28;20229;-75
2022/07/09 09:04:39;;;;;;;1.40;1.17;;;24.10;31.00;;;;;;10438342;28;20231;-75
2022/07/09 09:09:43;;;;;;;1.70;1.30;;;24.20;31.50;;;;;;10427360;28;20235;-75
2022/07/09 09:14:50;;;;;;;1.50;1.30;;;24.40;31.30;;;;;;10433892;28;20233;-75
2022/07/09 09:19:54;;;;;;;1.47;1.37;;;24.50;30.00;;;;;;10435152;28;20240;-75
2022/07/09 09:24:57;;;;;;;1.43;1.20;;;24.60;31.20;;;;;;10423198;28;20220;-75
2022/07/09 09:30:02;;;;;;;2.23;1.43;;;24.80;30.90;;;;;;10432540;28;20237;-75
2022/07/09 09:35:06;;;;;;;1.47;1.30;;;24.90;30.00;;;;;;10424293;28;20226;-75
2022/07/09 09:40:11;;;;;;;2.03;1.40;;;24.90;30.00;;;;;;10432929;28;20232;-75
2022/07/09 09:45:16;;;;;;;2.17;1.37;;;24.90;30.60;;;;;;10426880;28;20225;-75
2022/07/09 09:50:22;;;;;;;1.23;1.10;;;24.90;29.50;;;;;;10430112;28;20229;-74
2022/07/09 09:55:26;;;;;;;1.73;1.00;;;25.10;30.00;;;;;;10430131;28;20753;-76
2022/07/09 10:00:31;;;;;;;1.17;1.00;;;25.20;29.60;;;;;;10428348;28;20227;-76
2022/07/09 10:05:35;;;;;;;1.47;1.00;;;25.30;28.50;;;;;;10435246;28;20232;-76
2022/07/09 10:10:38;;;;;;;1.40;1.10;;;25.40;28.90;;;;;;10428636;28;20225;-76
2022/07/09 10:15:50;;;;;;;2.07;1.07;;;25.30;28.50;;;;;;10434410;28;20232;-76
2022/07/09 10:20:57;;;;;;;1.17;0.93;;;25.20;27.80;;;;;;10431437;28;20222;-75
2022/07/09 10:26:00;;;;;;;1.20;1.10;;;25.10;28.10;;;;;;10433155;28;20264;-76
2022/07/09 10:31:09;;;;;;;1.13;1.10;;;25.10;28.80;;;;;;10433900;28;20745;-75
2022/07/09 10:36:15;;;;;;;1.10;1.00;;;25.00;27.40;;;;;;10425228;28;20231;-76
2022/07/09 10:41:22;;;;;;;1.57;1.10;;;25.00;28.70;;;;;;10429607;28;20229;-76
2022/07/09 10:46:27;;;;;;;3.30;1.30;;;25.10;28.80;;;;;;10423157;28;20225;-76
2022/07/09 10:51:32;;;;;;;2.23;1.03;;;25.30;28.90;;;;;;10423410;28;20252;-77
2022/07/09 10:56:37;;;;;;;1.83;1.20;;;25.50;29.00;;;;;;10423844;28;20229;-77
2022/07/09 11:01:42;;;;;;;1.10;1.00;;;25.70;28.40;;;;;;10427630;28;20716;-76
2022/07/09 11:06:46;;;;;;;1.07;0.90;;;25.90;28.10;;;;;;10431108;28;20255;-76
2022/07/09 11:11:49;;;;;;;2.77;1.00;;;26.00;28.20;;;;;;10426903;28;20238;-75
2022/07/09 11:16:58;;;;;;;1.80;1.00;;;26.20;27.90;;;;;;10432539;28;20607;-76
2022/07/09 11:22:02;;;;;;;2.83;1.07;;;26.30;26.80;;;;;;10435279;28;20604;-76
2022/07/09 11:27:07;;;;;;;1.20;1.10;;;26.40;27.00;;;;;;10439572;28;20218;-76
2022/07/09 11:32:17;;;;;;;1.83;1.50;;;26.40;26.60;;;;;;10433914;28;20224;-76
2022/07/09 11:37:24;;;;;;;1.40;1.10;;;26.40;25.70;;;;;;10435148;28;20227;-76
2022/07/09 11:42:28;;;;;;;1.20;1.10;;;26.30;25.70;;;;;;10429815;28;20669;-76
2022/07/09 11:47:37;;;;;;;2.13;1.20;;;26.20;26.40;;;;;;10442173;28;20236;-76
2022/07/09 11:52:45;;;;;;;5.60;5.20;;;26.10;26.00;;;;;;10435085;28;20229;-76
2022/07/09 11:57:53;;;;;;;2.37;1.50;;;26.00;26.00;;;;;;10437208;28;20229;-76
2022/07/09 12:03:04;;;;;;;258.27;65.33;;;26.00;26.00;;;;;;10435689;28;20229;-76
2022/07/09 12:08:09;;;;;;;35.30;7.93;;;26.00;26.20;;;;;;10437807;28;20308;-76
2022/07/09 12:13:12;;;;;;;178.83;144.70;;;26.00;26.70;;;;;;10425626;28;20217;-76
2022/07/09 12:18:17;;;;;;;99.53;36.87;;;26.00;27.10;;;;;;10436800;28;20773;-76
2022/07/09 12:23:20;;;;;;;16.37;8.63;;;26.00;26.90;;;;;;10432899;28;20295;-76
2022/07/09 12:28:23;;;;;;;7.00;4.83;;;26.10;26.60;;;;;;10427101;28;20232;-76
2022/07/09 12:33:28;;;;;;;3.13;1.90;;;26.10;26.50;;;;;;10428494;28;20309;-77
2022/07/09 12:38:31;;;;;;;2.27;2.13;;;26.20;26.00;;;;;;10433874;28;20239;-77
2022/07/09 12:43:35;;;;;;;1.30;1.20;;;26.20;26.00;;;;;;10429985;28;20650;-78
2022/07/09 12:48:39;;;;;;;1.87;1.20;;;26.20;25.30;;;;;;10428648;28;20224;-77
2022/07/09 12:53:42;;;;;;;1.20;1.10;;;26.10;24.90;;;;;;10437128;28;20231;-77
2022/07/09 12:58:46;;;;;;;1.20;1.10;;;26.00;24.60;;;;;;10429701;28;20229;-77
2022/07/09 13:03:50;;;;;;;1.70;0.90;;;25.90;25.00;;;;;;10436285;28;20243;-78
2022/07/09 13:09:14;;;;;;;1.47;1.20;;;25.80;24.90;;;;;;10437108;28;20224;-78
2022/07/09 13:14:17;;;;;;;1.10;1.10;;;25.80;25.40;;;;;;10433844;28;20226;-77
2022/07/09 13:19:22;;;;;;;1.03;0.93;;;25.80;25.10;;;;;;10431266;28;20225;-78
2022/07/09 13:24:25;;;;;;;1.60;1.17;;;25.80;25.20;;;;;;10429787;28;20230;-78
2022/07/09 13:29:28;;;;;;;2.00;1.00;;;25.80;24.80;;;;;;10428642;28;20710;-77
2022/07/09 13:34:32;;;;;;;1.60;1.30;;;25.80;24.50;;;;;;10433358;28;20228;-77
2022/07/09 13:39:36;;;;;;;1.67;1.20;;;25.90;24.60;;;;;;10426054;28;20714;-72
2022/07/09 13:44:39;;;;;;;1.43;1.33;;;25.90;24.20;;;;;;10423983;28;20251;-72
2022/07/09 13:49:44;;;;;;;1.00;0.90;;;26.00;24.60;;;;;;10423573;28;20232;-74
2022/07/09 13:54:47;;;;;;;0.80;0.80;;;26.00;24.40;;;;;;10428072;28;20224;-76
2022/07/09 13:59:51;;;;;;;1.40;1.20;;;26.10;24.80;;;;;;10426247;28;20249;-75
2022/07/09 14:04:56;;;;;;;1.10;0.87;;;26.30;25.30;;;;;;10420157;28;20791;-76
2022/07/09 14:10:00;;;;;;;1.20;1.10;;;26.40;24.40;;;;;;10422572;28;21086;-75
2022/07/09 14:15:03;;;;;;;1.43;1.10;;;26.40;24.50;;;;;;10424629;28;21763;-75
2022/07/09 14:20:09;;;;;;;0.90;0.90;;;26.40;24.40;;;;;;10422685;28;20239;-75
2022/07/09 14:25:12;;;;;;;1.07;0.90;;;26.50;24.20;;;;;;10422770;28;20223;-76
2022/07/09 14:30:15;;;;;;;1.43;1.00;;;26.50;24.30;;;;;;10428253;28;20225;-76
2022/07/09 14:35:20;;;;;;;0.97;0.97;;;26.50;24.40;;;;;;10428261;28;20669;-75
2022/07/09 14:40:23;;;;;;;0.90;0.90;;;26.50;23.80;;;;;;10428455;28;20233;-75
2022/07/09 14:45:27;;;;;;;1.77;1.00;;;26.40;24.10;;;;;;10436784;28;20251;-76
2022/07/09 14:50:31;;;;;;;1.13;1.07;;;26.40;24.30;;;;;;10435014;28;20235;-75
2022/07/09 14:55:35;;;;;;;1.33;1.00;;;26.40;24.10;;;;;;10425665;28;20221;-74
2022/07/09 15:00:38;;;;;;;1.13;1.03;;;26.40;24.00;;;;;;10433247;28;20235;-75
2022/07/09 15:05:43;;;;;;;1.40;1.30;;;26.40;24.40;;;;;;10428990;28;20229;-76
2022/07/09 15:10:46;;;;;;;1.07;1.00;;;26.40;24.00;;;;;;10439903;28;20293;-75
2022/07/09 15:15:49;;;;;;;1.20;1.10;;;26.40;24.40;;;;;;10441400;28;20220;-75
2022/07/09 15:20:54;;;;;;;2.17;1.40;;;26.40;24.20;;;;;;10435151;28;20224;-75
2022/07/09 15:25:57;;;;;;;1.60;1.10;;;26.40;24.40;;;;;;10433288;28;20227;-75
2022/07/09 15:31:01;;;;;;;1.20;1.10;;;26.50;24.40;;;;;;10436912;28;20241;-75
2022/07/09 15:36:06;;;;;;;1.47;1.20;;;26.50;24.20;;;;;;10428128;28;20225;-75
2022/07/09 15:41:11;;;;;;;1.20;1.10;;;26.60;23.60;;;;;;10430670;28;20240;-75
2022/07/09 15:46:14;;;;;;;1.00;1.00;;;26.50;24.00;;;;;;10436818;28;20223;-75
2022/07/09 15:51:19;;;;;;;1.27;1.10;;;26.40;24.10;;;;;;10432916;28;20231;-75
2022/07/09 15:56:23;;;;;;;1.10;0.93;;;26.50;24.10;;;;;;10429552;28;20221;-75
2022/07/09 16:01:26;;;;;;;1.33;1.23;;;26.50;24.30;;;;;;10434502;28;20286;-75
2022/07/09 16:06:31;;;;;;;1.07;1.07;;;26.50;24.40;;;;;;10433383;28;20234;-75
2022/07/09 16:16:55;;;;;;;2.67;2.33;;;26.50;24.80;;;;;;10433508;28;20243;-75
2022/07/09 16:22:00;;;;;;;1.77;1.67;;;26.40;24.00;;;;;;10429798;28;20693;-75
2022/07/09 16:27:03;;;;;;;1.37;1.27;;;26.40;24.20;;;;;;10436633;28;22088;-75
2022/07/09 16:32:07;;;;;;;1.30;1.20;;;26.50;24.30;;;;;;10431326;28;20225;-75
2022/07/09 16:37:12;;;;;;;1.33;1.23;;;26.50;24.20;;;;;;10436729;28;20259;-75
2022/07/09 16:42:15;;;;;;;1.00;1.00;;;26.50;24.00;;;;;;10435776;28;20325;-75
2022/07/09 16:47:18;;;;;;;1.23;1.10;;;26.40;24.10;;;;;;10436685;28;20225;-75
2022/07/09 16:52:22;;;;;;;1.13;1.10;;;26.40;24.10;;;;;;10424785;28;20231;-76
2022/07/09 16:57:27;;;;;;;1.20;1.10;;;26.40;24.20;;;;;;10435875;28;20231;-76
2022/07/09 17:02:31;;;;;;;1.30;1.20;;;26.30;24.30;;;;;;10432541;28;20230;-76
2022/07/09 17:07:35;;;;;;;1.40;1.13;;;26.30;24.30;;;;;;10430907;28;20571;-76
2022/07/09 17:12:39;;;;;;;2.17;1.50;;;26.30;24.30;;;;;;10435400;28;20221;-76
2022/07/09 17:17:43;;;;;;;1.53;1.20;;;26.30;24.40;;;;;;10437944;28;20613;-76
2022/07/09 17:22:50;;;;;;;1.33;1.23;;;26.30;24.40;;;;;;10422951;28;20284;-76
2022/07/09 17:27:53;;;;;;;1.50;1.17;;;26.30;24.30;;;;;;10429048;28;20232;-76
2022/07/09 17:32:57;;;;;;;1.43;1.33;;;26.20;24.30;;;;;;10432781;28;20221;-76
2022/07/09 17:38:01;;;;;;;2.17;1.70;;;26.20;24.30;;;;;;10419752;28;20946;-75
2022/07/09 17:43:05;;;;;;;1.57;1.43;;;26.10;24.50;;;;;;10432554;28;20221;-75
2022/07/09 17:48:08;;;;;;;1.30;1.20;;;26.10;24.50;;;;;;10425539;28;20316;-75
2022/07/09 17:53:13;;;;;;;1.30;1.20;;;26.10;24.50;;;;;;10425495;28;20224;-75
2022/07/09 17:58:18;;;;;;;1.67;1.40;;;26.10;24.40;;;;;;10424472;28;20731;-75
2022/07/09 18:03:21;;;;;;;2.10;1.30;;;26.10;24.60;;;;;;10424904;28;21804;-76
2022/07/09 18:08:26;;;;;;;2.03;1.30;;;26.10;24.60;;;;;;10431675;28;20231;-75
2022/07/09 18:13:29;;;;;;;1.40;1.30;;;26.10;24.70;;;;;;10427641;28;20232;-74
2022/07/09 18:18:32;;;;;;;1.30;1.20;;;26.10;24.50;;;;;;10443617;28;20233;-77
2022/07/09 18:23:37;;;;;;;1.20;1.10;;;26.10;24.50;;;;;;10439199;28;20225;-74
2022/07/09 18:28:41;;;;;;;1.70;1.00;;;26.10;24.70;;;;;;10440837;28;20232;-75
2022/07/09 18:33:44;;;;;;;1.73;1.40;;;26.10;24.90;;;;;;10431576;28;20225;-77
2022/07/09 18:38:49;;;;;;;1.63;1.53;;;26.00;25.10;;;;;;10434120;28;20232;-77
2022/07/09 18:43:53;;;;;;;2.17;1.40;;;26.00;25.30;;;;;;10434630;28;20225;-77
2022/07/09 18:48:56;;;;;;;1.90;1.60;;;26.00;25.40;;;;;;10436456;28;20235;-77
2022/07/09 18:54:00;;;;;;;1.70;1.37;;;26.00;25.60;;;;;;10440302;28;20236;-77
2022/07/09 18:59:03;;;;;;;1.83;1.47;;;25.90;25.90;;;;;;10440030;28;20224;-77
2022/07/09 19:04:07;;;;;;;1.50;1.40;;;25.80;25.70;;;;;;10442032;28;20221;-76
2022/07/09 19:09:11;;;;;;;3.67;1.50;;;25.70;25.80;;;;;;10438907;28;20239;-77
2022/07/09 19:14:15;;;;;;;1.43;1.33;;;25.50;26.10;;;;;;10436650;28;20745;-76
2022/07/09 19:19:18;;;;;;;1.63;1.30;;;25.40;26.10;;;;;;10439045;28;20725;-77
2022/07/09 19:24:22;;;;;;;1.63;1.43;;;25.30;26.30;;;;;;10436124;28;20252;-77
2022/07/09 19:29:25;;;;;;;1.37;1.27;;;25.20;26.50;;;;;;10437193;28;20255;-77
2022/07/09 19:34:29;;;;;;;4.17;1.60;;;25.00;26.50;;;;;;10430723;28;20225;-76
2022/07/09 19:39:33;;;;;;;1.63;1.53;;;25.00;27.30;;;;;;10429067;28;20237;-77
2022/07/09 19:44:37;;;;;;;2.50;1.50;;;25.00;27.10;;;;;;10436908;28;20227;-77
2022/07/09 19:49:40;;;;;;;1.60;1.20;;;25.00;27.00;;;;;;10427620;28;20221;-77
2022/07/09 19:54:45;;;;;;;1.40;1.30;;;25.00;27.30;;;;;;10430377;28;20713;-77
2022/07/09 19:59:48;;;;;;;1.50;1.40;;;25.00;27.50;;;;;;10439381;28;20240;-77
2022/07/09 20:04:51;;;;;;;1.40;1.30;;;25.00;27.40;;;;;;10440287;28;20229;-77
2022/07/09 20:09:56;;;;;;;1.77;1.60;;;25.00;27.40;;;;;;10440396;28;20246;-76
2022/07/09 20:15:02;;;;;;;1.70;1.60;;;24.90;27.70;;;;;;10437944;28;20229;-76
2022/07/09 20:20:06;;;;;;;1.63;1.53;;;24.90;27.90;;;;;;10430674;28;20222;-77
2022/07/09 20:25:11;;;;;;;2.30;1.70;;;24.90;28.30;;;;;;10434679;28;20228;-77
2022/07/09 20:30:14;;;;;;;2.13;1.93;;;24.90;28.60;;;;;;10428276;28;20589;-77
2022/07/09 20:35:17;;;;;;;2.00;1.80;;;24.90;28.60;;;;;;10432056;28;20239;-76
2022/07/09 20:40:22;;;;;;;1.90;1.70;;;24.70;28.50;;;;;;10432590;28;20229;-77
2022/07/09 20:45:25;;;;;;;3.87;2.00;;;24.60;28.80;;;;;;10432335;28;20221;-76
2022/07/09 20:50:29;;;;;;;2.47;2.00;;;24.50;28.40;;;;;;10428303;28;20270;-77
2022/07/09 20:55:33;;;;;;;2.20;1.87;;;24.30;28.40;;;;;;10434425;28;20229;-77
2022/07/09 21:00:36;;;;;;;1.97;1.87;;;24.10;29.30;;;;;;10432308;28;20228;-77
2022/07/09 21:05:40;;;;;;;2.63;2.10;;;24.10;29.30;;;;;;10432902;28;20229;-77
2022/07/09 21:10:44;;;;;;;2.40;2.20;;;24.00;29.40;;;;;;10432050;28;20216;-77
2022/07/09 21:15:48;;;;;;;2.20;1.80;;;24.10;30.00;;;;;;10436054;28;20224;-77
2022/07/09 21:20:53;;;;;;;2.00;1.90;;;23.90;29.40;;;;;;10433417;28;20225;-77
2022/07/09 21:25:57;;;;;;;1.93;1.83;;;23.60;29.60;;;;;;10432699;28;20232;-77
2022/07/09 21:31:00;;;;;;;2.03;1.60;;;23.70;30.20;;;;;;10429319;28;20229;-76
2022/07/09 21:36:04;;;;;;;2.00;1.90;;;23.60;30.00;;;;;;10433303;28;20236;-77
2022/07/09 21:41:09;;;;;;;2.10;1.90;;;23.70;30.20;;;;;;10431988;28;20232;-77
2022/07/09 21:46:12;;;;;;;1.80;1.70;;;23.70;30.80;;;;;;10430817;28;20225;-77
2022/07/09 21:51:15;;;;;;;1.93;1.70;;;23.70;30.20;;;;;;10424757;28;20229;-77
2022/07/09 21:56:20;;;;;;;2.73;1.53;;;23.80;30.40;;;;;;10424830;28;20224;-77
2022/07/09 22:01:23;;;;;;;2.60;1.90;;;23.80;31.00;;;;;;10429786;28;20693;-77
2022/07/09 22:06:26;;;;;;;2.20;2.00;;;23.80;30.50;;;;;;10432160;28;20316;-77
2022/07/09 22:11:32;;;;;;;2.00;1.90;;;23.80;30.80;;;;;;10425885;28;20239;-77
2022/07/09 22:16:35;;;;;;;2.40;2.20;;;23.70;31.00;;;;;;10430350;28;20221;-78
2022/07/09 22:21:38;;;;;;;3.47;2.10;;;23.60;30.50;;;;;;10433039;28;20580;-77
2022/07/09 22:26:43;;;;;;;2.70;2.03;;;23.50;30.60;;;;;;10435516;28;20224;-77
2022/07/09 22:31:46;;;;;;;2.17;1.97;;;23.50;31.20;;;;;;10425759;28;20247;-77
2022/07/09 22:36:50;;;;;;;2.80;2.23;;;23.40;30.70;;;;;;10432905;28;20221;-77
2022/07/09 22:41:54;;;;;;;2.97;2.30;;;23.40;31.20;;;;;;10430319;28;20230;-77
2022/07/09 22:46:57;;;;;;;2.50;2.30;;;23.30;30.00;;;;;;10434935;28;20233;-78
2022/07/09 22:52:01;;;;;;;2.40;2.20;;;23.30;30.50;;;;;;10432155;28;20236;-77
2022/07/09 22:57:05;;;;;;;3.07;2.60;;;23.20;29.90;;;;;;10429960;28;20232;-77
2022/07/09 23:02:09;;;;;;;2.60;2.47;;;23.10;30.10;;;;;;10430260;28;20221;-77
2022/07/09 23:08:54;;;;;;;2.80;2.60;;;23.10;30.00;;;;;;10434176;28;20662;-77
2022/07/09 23:12:37;;;;;;;2.20;2.10;;;23.00;30.00;;;;;;10442650;28;20225;-77
2022/07/09 23:17:40;;;;;;;2.80;2.23;;;22.90;30.50;;;;;;10439132;28;20225;-77
2022/07/09 23:22:43;;;;;;;2.50;2.30;;;22.90;31.20;;;;;;10435988;28;20237;-77
2022/07/09 23:27:48;;;;;;;2.00;1.90;;;22.90;30.50;;;;;;10439090;28;20743;-77
2022/07/09 23:32:51;;;;;;;2.50;2.30;;;22.90;30.90;;;;;;10437622;28;20229;-77
2022/07/09 23:37:54;;;;;;;2.50;2.30;;;22.90;30.60;;;;;;10433108;28;20220;-77
2022/07/09 23:42:59;;;;;;;2.70;2.50;;;22.80;30.60;;;;;;10430339;28;20233;-78
2022/07/09 23:48:02;;;;;;;3.80;3.40;;;22.70;31.30;;;;;;10436138;28;20221;-77
2022/07/09 23:53:05;;;;;;;2.60;2.40;;;22.60;31.30;;;;;;10434904;28;20618;-78
2022/07/09 23:58:10;;;;;;;2.53;2.33;;;22.60;31.10;;;;;;10439838;28;20235;-77
